Time;durP1;ratioP1;P1;durP2;ratioP2;P2;SDS_P1;SDS_P2;PMS_P1;PMS_P2;Temp;Humidity;BMP_temperature;BMP_pressure;BME280_temperature;BME280_humidity;BME280_pressure;Samples;Min_cycle;Max_cycle;Signal;HPM_P1;HPM_P2
2022/04/11 00:01:57;;;;;;;0.00;0.00;;;2.50;99.90;;;;;;5052360;28;20523;-85
2022/04/11 00:04:24;;;;;;;0.10;0.10;;;2.40;99.90;;;;;;5051117;28;20044;-85
2022/04/11 00:06:49;;;;;;;0.00;0.00;;;2.40;99.90;;;;;;5052259;28;20114;-85
2022/04/11 00:09:15;;;;;;;0.00;0.00;;;2.40;99.90;;;;;;5035635;28;20489;-86
2022/04/11 00:11:41;;;;;;;0.00;0.00;;;2.40;99.90;;;;;;5052303;28;20094;-86
2022/04/11 00:14:06;;;;;;;0.00;0.00;;;2.50;99.90;;;;;;5052276;28;20118;-85
2022/04/11 00:16:32;;;;;;;0.00;0.00;;;2.30;99.90;;;;;;5052300;28;20137;-84
2022/04/11 00:18:58;;;;;;;0.00;0.00;;;2.30;99.90;;;;;;5036308;28;20051;-86
2022/04/11 00:21:23;;;;;;;0.00;0.00;;;2.20;99.90;;;;;;5053184;28;20499;-86
2022/04/11 00:23:49;;;;;;;0.00;0.00;;;2.20;99.90;;;;;;5052471;28;20408;-86
2022/04/11 00:26:15;;;;;;;0.00;0.00;;;2.20;99.90;;;;;;5053026;28;20063;-86
2022/04/11 00:28:40;;;;;;;0.00;0.00;;;2.20;99.90;;;;;;5053038;28;20049;-86
2022/04/11 00:31:06;;;;;;;0.10;0.10;;;2.10;99.90;;;;;;5053022;28;20045;-86
2022/04/11 00:33:32;;;;;;;0.03;0.03;;;2.10;99.90;;;;;;5052991;28;20049;-86
2022/04/11 00:35:57;;;;;;;0.00;0.00;;;2.10;99.90;;;;;;5036426;28;20564;-86
2022/04/11 00:38:23;;;;;;;0.00;0.00;;;2.10;99.90;;;;;;5053082;28;20041;-86
2022/04/11 00:40:49;;;;;;;0.00;0.00;;;2.10;99.90;;;;;;5036324;28;20087;-85
2022/04/11 00:43:37;;;;;;;0.00;0.00;;;2.00;99.90;;;;;;5052250;28;20053;-87
2022/04/11 00:46:05;;;;;;;0.28;0.00;;;2.00;99.90;;;;;;5053067;28;20106;-86
2022/04/11 00:48:31;;;;;;;0.00;0.00;;;2.00;99.90;;;;;;5053070;28;20503;-86
2022/04/11 00:51:05;;;;;;;0.00;0.00;;;1.90;99.90;;;;;;5036359;28;20048;-86
2022/04/11 00:53:32;;;;;;;0.00;0.00;;;1.90;99.90;;;;;;5036102;28;20163;-86
2022/04/11 00:55:58;;;;;;;0.00;0.00;;;2.00;99.90;;;;;;5052809;28;20056;-86
2022/04/11 00:58:24;;;;;;;0.00;0.00;;;2.00;99.90;;;;;;5053130;28;20052;-86
2022/04/11 01:00:50;;;;;;;0.00;0.00;;;1.90;99.90;;;;;;5036038;28;20147;-86
2022/04/11 01:03:16;;;;;;;1.45;0.80;;;1.90;99.90;;;;;;5052763;28;20132;-86
2022/04/11 01:05:42;;;;;;;0.00;0.00;;;1.90;99.90;;;;;;5036095;28;20411;-86
2022/04/11 01:08:09;;;;;;;0.00;0.00;;;1.80;99.90;;;;;;5035932;28;20064;-86
2022/04/11 01:10:35;;;;;;;0.00;0.00;;;1.80;99.90;;;;;;5052288;28;20057;-86
2022/04/11 01:13:02;;;;;;;0.00;0.00;;;1.80;99.90;;;;;;5052552;28;20056;-86
2022/04/11 01:15:28;;;;;;;0.00;0.00;;;1.80;99.90;;;;;;5052801;28;20094;-86
2022/04/11 01:17:53;;;;;;;0.00;0.00;;;1.70;99.90;;;;;;5052602;28;20548;-86
2022/04/11 01:20:19;;;;;;;0.00;0.00;;;1.80;99.90;;;;;;5036095;28;20139;-86
2022/04/11 01:22:46;;;;;;;0.10;0.10;;;1.90;99.90;;;;;;5035469;28;20551;-86
2022/04/11 01:25:13;;;;;;;0.00;0.00;;;1.80;99.90;;;;;;5051808;28;20072;-86
2022/04/11 01:27:39;;;;;;;0.00;0.00;;;1.90;99.90;;;;;;5035624;28;20041;-86
2022/04/11 01:30:07;;;;;;;0.00;0.00;;;1.80;99.90;;;;;;5052353;28;20508;-86
2022/04/11 01:32:33;;;;;;;0.00;0.00;;;1.80;99.90;;;;;;5053932;28;20080;-86
2022/04/11 01:34:59;;;;;;;0.00;0.00;;;1.90;99.90;;;;;;5056092;28;20045;-85
2022/04/11 01:37:24;;;;;;;0.00;0.00;;;1.80;99.90;;;;;;5056288;28;20048;-86
2022/04/11 01:39:50;;;;;;;0.05;0.05;;;1.80;99.90;;;;;;5056057;28;20056;-86
2022/04/11 01:42:16;;;;;;;0.80;0.20;;;1.80;99.90;;;;;;5039686;28;20091;-86
2022/04/11 01:44:41;;;;;;;0.00;0.00;;;1.80;99.90;;;;;;5039482;28;20056;-86
2022/04/11 01:47:07;;;;;;;0.00;0.00;;;1.80;99.90;;;;;;5039476;28;20580;-86
2022/04/11 01:49:33;;;;;;;0.00;0.00;;;1.70;99.90;;;;;;5056058;28;20049;-86
2022/04/11 01:51:59;;;;;;;0.10;0.10;;;1.80;99.90;;;;;;5055589;28;20037;-86
2022/04/11 01:54:25;;;;;;;0.00;0.00;;;1.70;99.90;;;;;;5040049;28;20048;-87
2022/04/11 01:56:50;;;;;;;0.00;0.00;;;1.70;99.90;;;;;;5056377;28;20047;-86
2022/04/11 01:59:16;;;;;;;0.00;0.00;;;1.70;99.90;;;;;;5055886;28;20045;-86
2022/04/11 02:01:43;;;;;;;0.00;0.00;;;1.70;99.90;;;;;;5056085;28;20044;-86
2022/04/11 02:04:09;;;;;;;0.00;0.00;;;1.70;99.90;;;;;;5055562;28;20399;-85
2022/04/11 02:06:35;;;;;;;0.10;0.10;;;1.70;99.90;;;;;;5055732;28;20057;-86
2022/04/11 02:09:01;;;;;;;2.55;0.10;;;1.70;99.90;;;;;;5038772;28;20069;-86
2022/04/11 02:11:27;;;;;;;0.00;0.00;;;1.70;99.90;;;;;;5055704;28;20048;-86
2022/04/11 02:13:52;;;;;;;0.00;0.00;;;1.70;99.90;;;;;;5039154;28;20134;-87
2022/04/11 02:16:18;;;;;;;0.30;0.20;;;1.70;99.90;;;;;;5039029;28;20057;-86
2022/04/11 02:18:44;;;;;;;0.00;0.00;;;1.70;99.90;;;;;;5039003;28;20447;-86
2022/04/11 02:21:09;;;;;;;0.00;0.00;;;1.70;99.90;;;;;;5055237;28;20041;-86
2022/04/11 02:23:35;;;;;;;0.00;0.00;;;1.70;99.90;;;;;;5038483;28;20461;-86
2022/04/11 02:26:02;;;;;;;0.00;0.00;;;1.70;99.90;;;;;;5055360;28;20124;-86
2022/04/11 02:28:28;;;;;;;0.00;0.00;;;1.70;99.90;;;;;;5055353;28;20091;-86
2022/04/11 02:30:54;;;;;;;0.00;0.00;;;1.70;99.90;;;;;;5038454;28;20093;-86
2022/04/11 02:33:19;;;;;;;0.00;0.00;;;1.70;99.90;;;;;;5055409;28;20048;-86
2022/04/11 02:35:45;;;;;;;0.00;0.00;;;1.70;99.90;;;;;;5054968;28;20391;-86
2022/04/11 02:38:11;;;;;;;0.30;0.05;;;1.70;99.90;;;;;;5055123;28;20045;-86
2022/04/11 02:40:37;;;;;;;0.20;0.20;;;1.70;99.90;;;;;;5038522;28;20052;-86
2022/04/11 02:43:02;;;;;;;0.00;0.00;;;1.90;99.90;;;;;;5054292;28;20049;-86
2022/04/11 02:45:28;;;;;;;0.80;0.38;;;1.60;99.90;;;;;;5054498;28;20044;-87
2022/04/11 02:47:54;;;;;;;0.00;0.00;;;1.60;99.90;;;;;;5054890;28;20067;-86
2022/04/11 02:50:19;;;;;;;0.00;0.00;;;1.60;99.90;;;;;;5055215;28;20392;-86
2022/04/11 02:52:46;;;;;;;0.00;0.00;;;1.60;99.90;;;;;;5055051;28;20485;-87
2022/04/11 02:55:12;;;;;;;0.00;0.00;;;1.60;99.90;;;;;;5054662;28;20045;-87
2022/04/11 02:57:38;;;;;;;0.00;0.00;;;1.70;99.90;;;;;;5038339;28;20049;-87
2022/04/11 03:00:10;;;;;;;0.00;0.00;;;1.60;99.90;;;;;;5054875;28;20497;-87
2022/04/11 03:02:36;;;;;;;0.00;0.00;;;1.60;99.90;;;;;;5054597;28;20048;-87
2022/04/11 03:05:02;;;;;;;0.00;0.00;;;1.60;99.90;;;;;;5054661;28;20396;-87
2022/04/11 03:07:28;;;;;;;0.00;0.00;;;1.60;99.90;;;;;;5038136;28;20086;-87
2022/04/11 03:09:54;;;;;;;0.05;0.03;;;1.60;99.90;;;;;;5038046;28;20040;-87
2022/04/11 03:12:20;;;;;;;0.00;0.00;;;1.70;99.90;;;;;;5054892;28;20041;-87
2022/04/11 03:14:49;;;;;;;0.13;0.08;;;1.70;99.90;;;;;;5054331;28;20493;-87
2022/04/11 03:17:16;;;;;;;0.00;0.00;;;1.70;99.90;;;;;;5037803;28;20045;-86
2022/04/11 03:19:42;;;;;;;0.22;0.22;;;1.70;99.90;;;;;;5054389;28;20056;-86
2022/04/11 03:22:09;;;;;;;0.00;0.00;;;1.70;99.90;;;;;;5054252;28;20611;-87
2022/04/11 03:24:35;;;;;;;0.00;0.00;;;1.60;99.90;;;;;;5037157;28;20063;-87
2022/04/11 03:27:01;;;;;;;0.00;0.00;;;1.60;99.90;;;;;;5054015;28;20049;-87
2022/04/11 03:29:27;;;;;;;1.27;0.30;;;1.60;99.90;;;;;;5054317;28;20060;-87
2022/04/11 03:31:52;;;;;;;0.00;0.00;;;1.60;99.90;;;;;;5054132;28;20385;-86
2022/04/11 03:34:18;;;;;;;0.00;0.00;;;1.60;99.90;;;;;;5054123;28;20130;-87
2022/04/11 03:36:44;;;;;;;1.17;0.25;;;1.70;99.90;;;;;;5054224;28;20128;-87
2022/04/11 03:39:10;;;;;;;0.00;0.00;;;1.60;99.90;;;;;;5054072;28;20048;-87
2022/04/11 03:41:36;;;;;;;0.00;0.00;;;1.60;99.90;;;;;;5037256;28;20053;-87
2022/04/11 03:44:02;;;;;;;0.10;0.10;;;1.50;99.90;;;;;;5053724;28;20037;-87
2022/04/11 03:46:28;;;;;;;1.15;0.40;;;1.50;99.90;;;;;;5037182;28;20102;-87
2022/04/11 03:48:54;;;;;;;0.00;0.00;;;1.50;99.90;;;;;;5037309;28;20049;-87
2022/04/11 03:51:20;;;;;;;0.00;0.00;;;1.50;99.90;;;;;;5053817;28;20049;-87
2022/04/11 03:53:47;;;;;;;0.10;0.10;;;1.50;99.90;;;;;;5037359;28;20056;-87
2022/04/11 03:56:17;;;;;;;0.00;0.00;;;1.60;99.90;;;;;;5035495;28;20049;-86
2022/04/11 03:58:43;;;;;;;0.00;0.00;;;1.50;99.90;;;;;;5034729;28;20516;-86
2022/04/11 04:01:09;;;;;;;0.00;0.00;;;1.50;99.90;;;;;;5036236;28;20045;-87
2022/04/11 04:03:35;;;;;;;0.00;0.00;;;1.50;99.90;;;;;;5037280;28;20052;-87
2022/04/11 04:06:01;;;;;;;0.00;0.00;;;1.50;99.90;;;;;;5036916;28;20499;-87
2022/04/11 04:08:27;;;;;;;0.00;0.00;;;1.60;99.90;;;;;;5053546;28;20052;-87
2022/04/11 04:10:52;;;;;;;0.00;0.00;;;1.60;99.90;;;;;;5037081;28;20045;-86
2022/04/11 04:13:18;;;;;;;0.00;0.00;;;1.60;99.90;;;;;;5036474;28;20041;-86
2022/04/11 04:15:44;;;;;;;0.00;0.00;;;1.60;99.90;;;;;;5037367;28;20053;-87
2022/04/11 04:18:13;;;;;;;0.00;0.00;;;1.70;99.90;;;;;;5036504;28;20109;-88
2022/04/11 04:20:39;;;;;;;0.00;0.00;;;1.70;99.90;;;;;;5036538;28;20484;-87
2022/04/11 04:23:06;;;;;;;0.00;0.00;;;1.80;99.90;;;;;;5053085;28;20056;-87
2022/04/11 04:25:35;;;;;;;0.08;0.05;;;1.80;99.90;;;;;;5052834;28;20064;-87
2022/04/11 04:28:02;;;;;;;0.00;0.00;;;1.90;99.90;;;;;;5052810;28;20056;-86
2022/04/11 04:30:30;;;;;;;0.00;0.00;;;1.90;99.90;;;;;;5036469;28;20435;-87
2022/04/11 04:32:57;;;;;;;0.00;0.00;;;1.90;99.90;;;;;;5036487;28;20414;-87
2022/04/11 04:35:23;;;;;;;0.00;0.00;;;1.90;99.90;;;;;;5053201;28;20040;-87
2022/04/11 04:37:49;;;;;;;0.00;0.00;;;1.90;99.90;;;;;;5036248;28;20409;-87
2022/04/11 04:40:14;;;;;;;0.20;0.20;;;2.00;99.90;;;;;;5053016;28;20045;-87
2022/04/11 04:42:40;;;;;;;0.00;0.00;;;2.00;99.90;;;;;;5052691;28;20091;-87
2022/04/11 04:45:06;;;;;;;0.15;0.15;;;2.00;99.90;;;;;;5036168;28;20088;-87
2022/04/11 04:47:32;;;;;;;0.00;0.00;;;2.10;99.90;;;;;;5053410;28;20393;-87
2022/04/11 04:49:58;;;;;;;0.00;0.00;;;2.10;99.90;;;;;;5052784;28;20059;-87
2022/04/11 04:52:24;;;;;;;0.00;0.00;;;2.20;99.90;;;;;;5052763;28;20493;-87
2022/04/11 04:54:49;;;;;;;0.00;0.00;;;2.20;99.90;;;;;;5052959;28;20462;-89
2022/04/11 04:57:15;;;;;;;0.00;0.00;;;2.30;99.90;;;;;;5035789;28;20103;-87
2022/04/11 04:59:41;;;;;;;0.00;0.00;;;2.30;99.90;;;;;;5052974;28;20044;-87
2022/04/11 05:02:06;;;;;;;0.00;0.00;;;2.30;99.90;;;;;;5036303;28;20489;-87
2022/04/11 05:04:32;;;;;;;0.25;0.00;;;2.60;99.90;;;;;;5035613;28;20044;-85
2022/04/11 05:06:58;;;;;;;0.00;0.00;;;2.50;99.90;;;;;;5035327;28;20052;-87
2022/04/11 05:09:24;;;;;;;0.10;0.10;;;2.50;99.90;;;;;;5052713;28;20047;-87
2022/04/11 05:11:50;;;;;;;0.00;0.00;;;2.60;99.90;;;;;;5035853;28;20396;-87
2022/04/11 05:14:15;;;;;;;0.00;0.00;;;2.60;99.90;;;;;;5052605;28;20159;-89
2022/04/11 05:16:47;;;;;;;0.10;0.10;;;2.70;99.90;;;;;;5052685;28;20060;-88
2022/04/11 05:19:13;;;;;;;0.00;0.00;;;2.70;99.90;;;;;;5052300;28;20191;-86
2022/04/11 05:21:38;;;;;;;0.00;0.00;;;2.80;99.90;;;;;;5052706;28;20124;-86
2022/04/11 05:24:06;;;;;;;0.00;0.00;;;2.80;99.90;;;;;;5035366;28;20057;-85
2022/04/11 05:26:31;;;;;;;0.00;0.00;;;2.80;99.90;;;;;;5035681;28;20056;-85
2022/04/11 05:28:57;;;;;;;0.00;0.00;;;2.90;99.90;;;;;;5035971;28;20392;-85
2022/04/11 05:31:24;;;;;;;0.00;0.00;;;2.90;99.90;;;;;;5035787;28;20091;-86
2022/04/11 05:33:50;;;;;;;0.00;0.00;;;3.00;99.90;;;;;;5052332;28;20045;-86
2022/04/11 05:36:16;;;;;;;0.00;0.00;;;3.00;99.90;;;;;;5035813;28;20079;-85
2022/04/11 05:38:41;;;;;;;0.10;0.10;;;3.10;99.90;;;;;;5035693;28;20090;-86
2022/04/11 05:41:07;;;;;;;0.00;0.00;;;3.10;99.90;;;;;;5035458;28;20055;-86
2022/04/11 05:43:33;;;;;;;0.00;0.00;;;3.20;99.90;;;;;;5035642;28;20045;-86
2022/04/11 05:46:02;;;;;;;0.10;0.10;;;3.50;99.90;;;;;;5052520;28;20048;-86
2022/04/11 05:48:30;;;;;;;0.10;0.10;;;3.30;99.90;;;;;;5035392;28;20094;-86
2022/04/11 05:50:57;;;;;;;0.00;0.00;;;3.40;99.90;;;;;;5052144;28;20121;-86
2022/04/11 05:53:22;;;;;;;0.10;0.10;;;3.40;99.90;;;;;;5035621;28;20092;-85
2022/04/11 05:55:48;;;;;;;0.00;0.00;;;3.50;99.90;;;;;;5035768;28;20060;-85
2022/04/11 05:58:14;;;;;;;0.00;0.00;;;3.50;99.90;;;;;;5035775;28;20084;-85
2022/04/11 06:00:39;;;;;;;0.15;0.00;;;3.60;99.90;;;;;;5052130;28;20045;-86
2022/04/11 06:03:05;;;;;;;2.15;0.05;;;3.60;99.90;;;;;;5052296;28;20071;-85
2022/04/11 06:05:31;;;;;;;0.63;0.20;;;3.70;99.90;;;;;;5035304;28;20053;-85
2022/04/11 06:07:56;;;;;;;0.00;0.00;;;3.70;99.90;;;;;;5035523;28;20068;-86
2022/04/11 06:10:22;;;;;;;0.00;0.00;;;3.70;99.90;;;;;;5051866;28;20045;-87
2022/04/11 06:12:49;;;;;;;0.00;0.00;;;3.80;99.90;;;;;;5035839;28;20438;-86
2022/04/11 06:15:17;;;;;;;0.00;0.00;;;3.80;99.90;;;;;;5051938;28;20048;-86
2022/04/11 06:17:43;;;;;;;0.00;0.00;;;3.90;99.90;;;;;;5052665;28;20091;-86
2022/04/11 06:20:10;;;;;;;0.00;0.00;;;3.90;99.90;;;;;;5055713;28;20075;-86
2022/04/11 06:22:42;;;;;;;0.00;0.00;;;3.90;99.90;;;;;;5055454;28;20049;-86
2022/04/11 06:25:09;;;;;;;0.00;0.00;;;3.90;99.90;;;;;;5055257;28;20049;-86
2022/04/11 06:27:37;;;;;;;3.15;0.85;;;4.00;99.90;;;;;;5055361;28;20132;-86
2022/04/11 06:30:07;;;;;;;0.00;0.00;;;4.00;99.90;;;;;;5038551;28;20041;-86
2022/04/11 06:32:33;;;;;;;0.00;0.00;;;4.10;99.90;;;;;;5055368;28;20136;-86
2022/04/11 06:34:59;;;;;;;0.00;0.00;;;4.20;99.90;;;;;;5054919;28;20090;-86
2022/04/11 06:37:25;;;;;;;0.00;0.00;;;4.20;99.90;;;;;;5054735;28;20036;-87
2022/04/11 06:39:52;;;;;;;0.08;0.00;;;4.30;99.90;;;;;;5039043;28;20191;-86
2022/04/11 06:42:18;;;;;;;0.10;0.10;;;4.40;99.90;;;;;;5038625;28;20057;-87
2022/04/11 06:44:44;;;;;;;0.10;0.10;;;4.50;99.90;;;;;;5038159;28;20041;-87
2022/04/11 06:47:09;;;;;;;0.20;0.20;;;4.60;99.90;;;;;;5038621;28;20370;-86
2022/04/11 06:49:36;;;;;;;0.20;0.03;;;4.70;99.90;;;;;;5054982;28;20049;-86
2022/04/11 06:52:02;;;;;;;0.00;0.00;;;4.80;99.90;;;;;;5038623;28;20061;-87
2022/04/11 06:54:28;;;;;;;1.52;1.13;;;4.90;99.90;;;;;;5054453;28;20500;-86
2022/04/11 06:56:54;;;;;;;0.00;0.00;;;5.00;99.90;;;;;;5054760;28;20041;-86
2022/04/11 06:59:19;;;;;;;0.00;0.00;;;5.10;99.90;;;;;;5038291;28;20040;-87
2022/04/11 07:01:45;;;;;;;0.35;0.00;;;5.30;99.90;;;;;;5054819;28;20045;-86
2022/04/11 07:04:11;;;;;;;0.00;0.00;;;5.40;99.90;;;;;;5054405;28;20052;-86
2022/04/11 07:06:36;;;;;;;0.10;0.10;;;5.40;99.90;;;;;;5038038;28;20057;-86
2022/04/11 07:09:02;;;;;;;0.00;0.00;;;5.40;99.90;;;;;;5054207;28;20048;-87
2022/04/11 07:11:31;;;;;;;0.40;0.05;;;5.70;99.90;;;;;;5054715;28;20049;-86
2022/04/11 07:13:56;;;;;;;0.00;0.00;;;5.50;99.90;;;;;;5054496;28;20048;-86
2022/04/11 07:16:24;;;;;;;0.00;0.00;;;5.60;99.90;;;;;;5037805;28;20504;-86
2022/04/11 07:18:53;;;;;;;0.20;0.00;;;5.60;99.90;;;;;;5054416;28;20053;-85
2022/04/11 07:21:19;;;;;;;0.00;0.00;;;5.70;99.90;;;;;;5038033;28;20045;-86
2022/04/11 07:23:45;;;;;;;0.63;0.30;;;5.70;99.90;;;;;;5053754;28;20045;-85
2022/04/11 07:26:10;;;;;;;0.00;0.00;;;5.70;99.90;;;;;;5037772;28;20059;-86
2022/04/11 07:28:36;;;;;;;0.00;0.00;;;5.80;99.90;;;;;;5037364;28;20079;-86
2022/04/11 07:31:02;;;;;;;0.35;0.15;;;5.90;99.90;;;;;;5036910;28;20068;-85
2022/04/11 07:33:28;;;;;;;0.10;0.10;;;6.10;99.90;;;;;;5054093;28;20528;-86
2022/04/11 07:35:53;;;;;;;0.43;0.20;;;6.10;99.90;;;;;;5053886;28;20040;-86
2022/04/11 07:38:19;;;;;;;0.00;0.00;;;6.10;99.90;;;;;;5037445;28;20057;-86
2022/04/11 07:40:45;;;;;;;0.00;0.00;;;6.20;99.90;;;;;;5037306;28;20092;-86
2022/04/11 07:43:11;;;;;;;0.00;0.00;;;6.30;99.90;;;;;;5053857;28;20083;-86
2022/04/11 07:45:36;;;;;;;0.00;0.00;;;6.40;99.90;;;;;;5037334;28;20080;-86
2022/04/11 07:48:02;;;;;;;0.00;0.00;;;6.50;99.90;;;;;;5053748;28;20048;-85
2022/04/11 07:50:28;;;;;;;0.00;0.00;;;6.50;99.90;;;;;;5053985;28;20098;-85
2022/04/11 07:52:54;;;;;;;0.00;0.00;;;6.60;99.90;;;;;;5053610;28;20496;-86
2022/04/11 07:55:20;;;;;;;0.00;0.00;;;6.70;99.90;;;;;;5037452;28;20064;-86
2022/04/11 07:57:45;;;;;;;0.00;0.00;;;6.80;99.90;;;;;;5037080;28;20059;-86
2022/04/11 08:00:12;;;;;;;0.00;0.00;;;6.80;99.90;;;;;;5037112;28;20052;-86
2022/04/11 08:02:38;;;;;;;0.00;0.00;;;6.90;99.90;;;;;;5053268;28;20040;-86
2022/04/11 08:05:07;;;;;;;0.10;0.00;;;7.00;99.90;;;;;;5036943;28;20365;-86
2022/04/11 08:07:34;;;;;;;0.20;0.20;;;7.10;99.90;;;;;;5054045;28;20056;-86
2022/04/11 08:10:04;;;;;;;0.10;0.10;;;7.20;99.90;;;;;;5053356;28;20045;-86
2022/04/11 08:12:30;;;;;;;0.00;0.00;;;7.30;99.90;;;;;;5053481;28;20041;-86
2022/04/11 08:14:57;;;;;;;0.28;0.08;;;7.30;99.90;;;;;;5053339;28;20591;-86
2022/04/11 08:17:23;;;;;;;0.05;0.05;;;7.40;99.90;;;;;;5036985;28;20447;-87
2022/04/11 08:19:48;;;;;;;0.22;0.22;;;7.40;99.90;;;;;;5053871;28;20044;-86
2022/04/11 08:22:14;;;;;;;0.30;0.30;;;7.60;99.90;;;;;;5053126;28;20094;-86
2022/04/11 08:24:40;;;;;;;0.00;0.00;;;7.60;99.90;;;;;;5035940;28;20107;-86
2022/04/11 08:27:06;;;;;;;0.00;0.00;;;7.80;99.90;;;;;;5053049;28;20106;-86
2022/04/11 08:29:31;;;;;;;0.73;0.55;;;8.10;99.90;;;;;;5053177;28;20041;-89
2022/04/11 08:31:57;;;;;;;0.13;0.13;;;8.30;99.90;;;;;;5052779;28;20079;-85
2022/04/11 08:34:23;;;;;;;0.00;0.00;;;8.50;99.90;;;;;;5036201;28;20080;-85
2022/04/11 08:36:48;;;;;;;0.30;0.05;;;8.80;99.90;;;;;;5036379;28;20047;-85
2022/04/11 08:39:15;;;;;;;1.85;0.30;;;8.90;99.90;;;;;;5052929;28;20039;-85
2022/04/11 08:41:42;;;;;;;0.08;0.08;;;9.00;99.90;;;;;;5052843;28;20473;-85
2022/04/11 08:44:08;;;;;;;0.50;0.28;;;9.20;99.90;;;;;;5036011;28;20127;-86
2022/04/11 08:46:35;;;;;;;0.20;0.20;;;9.40;99.90;;;;;;5052549;28;20052;-86
2022/04/11 08:49:08;;;;;;;0.00;0.00;;;9.60;99.90;;;;;;5036265;28;20049;-86
2022/04/11 08:51:35;;;;;;;0.00;0.00;;;9.90;99.90;;;;;;5036488;28;20049;-86
2022/04/11 08:54:05;;;;;;;0.00;0.00;;;10.10;99.90;;;;;;5052791;28;20090;-86
2022/04/11 08:56:31;;;;;;;1.38;0.38;;;10.20;99.90;;;;;;5052673;28;20049;-86
2022/04/11 08:58:58;;;;;;;0.10;0.10;;;10.40;99.90;;;;;;5052278;28;20382;-86
2022/04/11 09:01:24;;;;;;;0.35;0.35;;;10.60;99.90;;;;;;5036099;28;20052;-87
2022/04/11 09:03:50;;;;;;;0.05;0.05;;;10.80;99.90;;;;;;5052219;28;20049;-87
2022/04/11 09:06:18;;;;;;;0.00;0.00;;;11.00;99.60;;;;;;5052467;28;20141;-87
2022/04/11 09:08:53;;;;;;;0.08;0.08;;;11.40;99.10;;;;;;5052589;28;20099;-87
2022/04/11 09:11:29;;;;;;;0.10;0.10;;;11.40;96.30;;;;;;5052858;28;20053;-88
2022/04/11 09:13:55;;;;;;;0.00;0.00;;;11.50;97.50;;;;;;5053161;28;20052;-89
2022/04/11 09:16:20;;;;;;;1.50;0.40;;;11.70;95.70;;;;;;5052232;28;20110;-88
2022/04/11 09:18:48;;;;;;;0.08;0.00;;;11.80;93.40;;;;;;5035496;28;20049;-88
2022/04/11 09:21:14;;;;;;;0.32;0.00;;;11.90;93.40;;;;;;5035824;28;20072;-89
2022/04/11 09:23:40;;;;;;;0.00;0.00;;;11.80;92.50;;;;;;5052323;28;20068;-88
2022/04/11 09:26:38;;;;;;;0.85;0.22;;;12.10;92.40;;;;;;5051930;28;20089;-88
2022/04/11 09:29:04;;;;;;;0.00;0.00;;;12.30;93.00;;;;;;4995919;28;20120;-89
2022/04/11 09:31:31;;;;;;;0.00;0.00;;;12.60;93.00;;;;;;4995616;28;20050;-89
2022/04/11 09:33:58;;;;;;;0.00;0.00;;;12.70;91.40;;;;;;4979437;28;20064;-89
2022/04/11 09:36:43;;;;;;;0.00;0.00;;;13.00;92.90;;;;;;4995742;28;20084;-90
2022/04/11 09:39:08;;;;;;;1.65;0.35;;;13.20;90.30;;;;;;4995494;28;20104;-90
2022/04/11 09:41:36;;;;;;;0.10;0.10;;;13.00;86.60;;;;;;4995430;28;20042;-89
2022/04/11 09:44:23;;;;;;;0.32;0.30;;;13.00;84.80;;;;;;4979172;28;20100;-90
2022/04/11 09:46:50;;;;;;;0.00;0.00;;;13.10;85.40;;;;;;4979498;28;20103;-90
2022/04/11 09:49:17;;;;;;;0.10;0.00;;;13.40;85.70;;;;;;4979470;28;20145;-90
2022/04/11 09:52:02;;;;;;;0.80;0.20;;;13.50;86.50;;;;;;4994796;28;20561;-91
2022/04/11 09:54:29;;;;;;;0.00;0.00;;;13.80;87.60;;;;;;4999040;28;20062;-90
2022/04/11 09:56:58;;;;;;;0.08;0.03;;;13.70;81.00;;;;;;4999612;28;20049;-90
2022/04/11 09:59:24;;;;;;;2.22;0.68;;;13.70;80.10;;;;;;4983181;28;20112;-91
2022/04/11 10:01:52;;;;;;;0.10;0.10;;;13.60;78.00;;;;;;4983626;28;20046;-92
2022/04/11 10:04:21;;;;;;;0.10;0.10;;;13.60;78.60;;;;;;4984921;28;20362;-91
2022/04/11 10:06:48;;;;;;;2.17;1.27;;;13.80;77.30;;;;;;5056877;28;20071;-92
2022/04/11 10:09:16;;;;;;;0.20;0.20;;;13.80;73.90;;;;;;5063461;28;20511;-92
2022/04/11 10:11:43;;;;;;;0.10;0.05;;;14.00;76.80;;;;;;5075933;28;20037;-92
2022/04/11 10:14:17;;;;;;;0.43;0.10;;;14.10;73.80;;;;;;5044968;28;20052;-95
2022/04/11 10:16:44;;;;;;;0.23;0.03;;;14.00;72.50;;;;;;5057017;28;20048;-94
2022/04/11 10:19:13;;;;;;;0.00;0.00;;;14.10;70.10;;;;;;5055853;28;20626;-89
2022/04/11 10:21:44;;;;;;;0.00;0.00;;;14.20;72.30;;;;;;5038985;28;20103;-88
2022/04/11 10:24:44;;;;;;;0.00;0.00;;;14.30;72.10;;;;;;5038537;28;20056;-88
2022/04/11 10:27:22;;;;;;;0.40;0.40;;;14.40;71.10;;;;;;5021200;28;20048;-90
2022/04/11 10:29:52;;;;;;;1.30;0.10;;;14.40;68.00;;;;;;5021894;28;20045;-89
2022/04/11 10:32:23;;;;;;;0.00;0.00;;;14.40;68.40;;;;;;5037710;28;20053;-89
2022/04/11 10:34:55;;;;;;;0.30;0.10;;;14.50;68.30;;;;;;5021468;28;20048;-89
2022/04/11 10:37:50;;;;;;;1.58;0.60;;;14.40;68.40;;;;;;5037930;28;20118;-88
2022/04/11 10:40:15;;;;;;;0.10;0.10;;;14.50;69.70;;;;;;4978730;28;20054;-89
2022/04/11 10:43:09;;;;;;;0.20;0.20;;;14.60;70.20;;;;;;4978442;28;20490;-89
2022/04/11 10:45:44;;;;;;;1.10;0.10;;;14.80;68.80;;;;;;4978605;28;20125;-89
2022/04/11 10:48:12;;;;;;;1.80;0.52;;;14.90;65.80;;;;;;4978824;28;20046;-89
2022/04/11 10:50:41;;;;;;;0.10;0.10;;;15.20;68.10;;;;;;4962450;28;20430;-89
2022/04/11 10:53:15;;;;;;;0.22;0.22;;;15.40;68.90;;;;;;4978617;28;20167;-88
2022/04/11 10:56:00;;;;;;;0.00;0.00;;;15.40;63.00;;;;;;4994771;28;20046;-88
2022/04/11 10:58:49;;;;;;;0.00;0.00;;;15.40;66.20;;;;;;4995081;28;20058;-89
2022/04/11 11:01:44;;;;;;;0.00;0.00;;;15.40;64.00;;;;;;4978395;28;20043;-88
2022/04/11 11:04:30;;;;;;;1.65;0.70;;;15.60;64.20;;;;;;4996654;28;20413;-89
2022/04/11 11:07:23;;;;;;;0.08;0.08;;;15.50;63.20;;;;;;4981665;28;20100;-88
2022/04/11 11:09:55;;;;;;;0.20;0.13;;;15.60;63.20;;;;;;4997450;28;20054;-88
2022/04/11 11:12:21;;;;;;;0.10;0.10;;;15.70;63.20;;;;;;4981445;28;20089;-88
2022/04/11 11:14:47;;;;;;;0.35;0.35;;;15.60;61.40;;;;;;4997138;28;20082;-89
2022/04/11 11:17:13;;;;;;;0.30;0.25;;;15.80;61.40;;;;;;5022234;28;20444;-88
2022/04/11 11:20:01;;;;;;;0.60;0.40;;;15.80;61.00;;;;;;5037812;28;20033;-89
2022/04/11 11:22:32;;;;;;;0.77;0.15;;;16.00;60.90;;;;;;5054142;28;20049;-87
2022/04/11 11:25:16;;;;;;;0.28;0.28;;;16.10;60.30;;;;;;5053834;28;20053;-88
2022/04/11 11:27:44;;;;;;;0.77;0.13;;;15.90;60.90;;;;;;5054749;28;20114;-88
2022/04/11 11:30:11;;;;;;;0.38;0.38;;;15.70;61.10;;;;;;5054197;28;20735;-88
2022/04/11 11:32:41;;;;;;;1.30;0.00;;;15.80;59.30;;;;;;5037639;28;20056;-88
2022/04/11 11:35:11;;;;;;;0.10;0.08;;;15.90;57.90;;;;;;5037536;28;20049;-88
2022/04/11 11:37:37;;;;;;;0.00;0.00;;;15.80;58.00;;;;;;5037367;28;20084;-88
2022/04/11 11:40:04;;;;;;;2.03;0.47;;;15.80;57.30;;;;;;5053668;28;20127;-88
2022/04/11 11:42:39;;;;;;;1.02;0.52;;;15.70;57.90;;;;;;5054022;28;20080;-88
2022/04/11 11:45:06;;;;;;;;;;;15.80;58.60;;;;;;5037195;28;20519;-83
2022/04/11 11:47:32;;;;;;;0.25;0.15;;;15.90;59.60;;;;;;5053453;28;19978;-83
2022/04/11 11:50:05;;;;;;;0.38;0.38;;;15.90;57.90;;;;;;5037780;28;20049;-83
2022/04/11 11:52:31;;;;;;;1.15;0.20;;;16.00;56.90;;;;;;5054283;28;20434;-83
2022/04/11 11:54:57;;;;;;;0.93;0.35;;;15.80;54.90;;;;;;5037068;28;20053;-83
2022/04/11 11:57:28;;;;;;;0.08;0.05;;;15.80;56.10;;;;;;5053836;28;20087;-83
2022/04/11 11:59:59;;;;;;;0.52;0.28;;;15.90;56.20;;;;;;5036840;28;20041;-83
2022/04/11 12:05:32;;;;;;;0.20;0.20;;;16.20;55.70;;;;;;5053726;28;20055;-83
2022/04/11 12:08:13;;;;;;;0.35;0.35;;;16.20;57.60;;;;;;5053602;28;20072;-83
2022/04/11 12:10:48;;;;;;;0.20;0.20;;;16.10;57.60;;;;;;5036824;28;20052;-83
2022/04/11 12:13:25;;;;;;;0.00;0.00;;;16.40;57.90;;;;;;5036706;28;20051;-83
2022/04/11 12:15:51;;;;;;;0.03;0.03;;;16.50;56.80;;;;;;5036908;28;20091;-83
2022/04/11 12:18:17;;;;;;;0.00;0.00;;;16.90;56.70;;;;;;5036637;28;20056;-83
2022/04/11 12:20:45;;;;;;;0.10;0.10;;;16.70;55.80;;;;;;5053287;28;20136;-83
2022/04/11 12:23:12;;;;;;;0.05;0.05;;;16.70;55.70;;;;;;5053046;28;20401;-83
2022/04/11 12:25:41;;;;;;;0.25;0.25;;;16.70;54.30;;;;;;5036122;28;20060;-83
2022/04/11 12:28:13;;;;;;;0.20;0.13;;;16.70;54.20;;;;;;5053033;28;20049;-83
2022/04/11 12:30:44;;;;;;;0.15;0.13;;;16.40;53.20;;;;;;5036453;28;20128;-83
2022/04/11 12:33:11;;;;;;;0.70;0.50;;;16.40;54.50;;;;;;5036113;28;20052;-83
2022/04/11 12:35:37;;;;;;;0.20;0.20;;;16.50;57.20;;;;;;5036391;28;20139;-83
2022/04/11 12:38:07;;;;;;;0.63;0.35;;;16.50;55.80;;;;;;5036564;28;20136;-84
2022/04/11 12:40:46;;;;;;;0.40;0.20;;;16.30;54.30;;;;;;5052889;28;20501;-84
2022/04/11 12:43:12;;;;;;;1.35;0.50;;;16.20;53.20;;;;;;5035788;28;20041;-83
2022/04/11 12:45:39;;;;;;;0.17;0.10;;;16.00;53.60;;;;;;5052887;28;20049;-84
2022/04/11 12:48:07;;;;;;;0.40;0.40;;;16.10;55.00;;;;;;5036163;28;20401;-84
2022/04/11 12:50:33;;;;;;;0.13;0.13;;;16.00;54.70;;;;;;5036178;28;20135;-84
2022/04/11 12:53:00;;;;;;;0.08;0.08;;;16.20;55.40;;;;;;5036189;28;20045;-84
2022/04/11 12:55:28;;;;;;;0.22;0.17;;;16.20;53.50;;;;;;5052547;28;20435;-84
2022/04/11 12:58:06;;;;;;;0.50;0.50;;;16.10;54.10;;;;;;5036070;28;20044;-84
2022/04/11 13:00:41;;;;;;;0.28;0.20;;;16.10;54.20;;;;;;5052631;28;20060;-84
2022/04/11 13:03:06;;;;;;;0.00;0.00;;;16.20;55.10;;;;;;5052985;28;20045;-84